Time;durP1;ratioP1;P1;durP2;ratioP2;P2;SDS_P1;SDS_P2;PMS_P1;PMS_P2;Temp;Humidity;BMP_temperature;BMP_pressure;BME280_temperature;BME280_humidity;BME280_pressure;Samples;Min_cycle;Max_cycle;Signal;HPM_P1;HPM_P2
2022/09/22 00:01:45;;;;;;;0.05;0.05;;;;;;;18.97;60.18;101112.25;7364000;19;20019;-60
2022/09/22 00:04:12;;;;;;;0.00;0.00;;;;;;;18.93;60.24;101108.88;7361723;19;21427;-60
2022/09/22 00:06:56;;;;;;;0.00;0.00;;;;;;;18.99;59.45;101117.44;7364711;19;20010;-59
2022/09/22 00:09:21;;;;;;;0.00;0.00;;;;;;;18.88;60.16;101095.03;7364969;19;20066;-58
2022/09/22 00:11:50;;;;;;;0.10;0.10;;;;;;;18.97;60.38;101106.09;7361911;19;21091;-60
2022/09/22 00:14:24;;;;;;;0.00;0.00;;;;;;;18.96;60.54;101101.72;7363668;19;20487;-60
2022/09/22 00:16:54;;;;;;;0.10;0.10;;;;;;;18.93;61.03;101100.94;7363738;19;20014;-60
2022/09/22 00:19:26;;;;;;;0.10;0.10;;;;;;;18.92;60.65;101083.38;7364159;19;20014;-60
2022/09/22 00:21:52;;;;;;;0.00;0.00;;;;;;;18.91;61.23;101086.94;7363361;19;20011;-60
2022/09/22 00:24:21;;;;;;;0.00;0.00;;;;;;;18.91;60.86;101092.25;7364934;19;22441;-59
2022/09/22 00:26:47;;;;;;;0.00;0.00;;;;;;;18.90;61.04;101079.91;7363851;19;20015;-60
2022/09/22 00:29:16;;;;;;;0.00;0.00;;;;;;;18.92;60.14;101072.78;7363758;19;20126;-58
2022/09/22 00:31:43;;;;;;;0.00;0.00;;;;;;;18.93;61.39;101074.47;7364798;19;20011;-59
2022/09/22 00:34:16;;;;;;;0.00;0.00;;;;;;;18.95;60.68;101073.53;7363943;19;20014;-59
2022/09/22 00:36:42;;;;;;;0.00;0.00;;;;;;;18.93;60.61;101090.34;7363657;19;20031;-59
2022/09/22 00:39:08;;;;;;;0.00;0.00;;;;;;;18.91;61.57;101068.44;7363249;19;20039;-60
2022/09/22 00:41:39;;;;;;;0.10;0.10;;;;;;;18.93;60.96;101068.34;7362627;19;20019;-59
2022/09/22 00:44:23;;;;;;;0.00;0.00;;;;;;;18.97;59.82;101074.34;7361779;19;20686;-59
2022/09/22 00:46:56;;;;;;;0.00;0.00;;;;;;;18.93;61.20;101063.91;7361709;19;20011;-59
2022/09/22 00:49:45;;;;;;;0.00;0.00;;;;;;;18.93;60.53;101063.91;7361433;19;20002;-60
2022/09/22 00:52:15;;;;;;;0.00;0.00;;;;;;;18.92;61.05;101062.19;7359432;19;20014;-60
2022/09/22 00:54:41;;;;;;;0.00;0.00;;;;;;;18.90;61.71;101068.47;7360494;19;20596;-59
2022/09/22 00:57:13;;;;;;;0.00;0.00;;;;;;;18.91;61.17;101055.19;7362699;19;20100;-60
2022/09/22 00:59:42;;;;;;;0.00;0.00;;;;;;;18.88;62.02;101047.41;7362807;19;20090;-60
2022/09/22 01:02:09;;;;;;;0.00;0.00;;;;;;;18.84;62.06;101042.34;7361313;19;20604;-59
2022/09/22 01:04:35;;;;;;;0.00;0.00;;;;;;;18.87;61.65;101051.00;7361925;19;20043;-59
2022/09/22 01:07:01;;;;;;;0.00;0.00;;;;;;;18.78;61.82;101027.63;7364386;19;20014;-59
2022/09/22 01:09:31;;;;;;;0.10;0.10;;;;;;;18.87;62.17;101037.75;7362296;19;20011;-59
2022/09/22 01:11:58;;;;;;;0.00;0.00;;;;;;;18.87;61.94;101027.16;7361906;19;20014;-58
2022/09/22 01:14:35;;;;;;;0.00;0.00;;;;;;;18.88;61.10;101039.47;7361185;19;20835;-59
2022/09/22 01:17:20;;;;;;;0.00;0.00;;;;;;;18.89;61.65;101035.88;7361243;19;20694;-59
2022/09/22 01:20:01;;;;;;;0.00;0.00;;;;;;;18.89;61.83;101022.63;7361390;19;20642;-59
2022/09/22 01:22:59;;;;;;;0.00;0.00;;;;;;;18.91;60.19;101001.41;7361253;19;20010;-58
2022/09/22 01:25:42;;;;;;;0.00;0.00;;;;;;;18.90;61.94;101024.34;7258292;19;2004392;-60
2022/09/22 01:28:47;;;;;;;0.00;0.00;;;;;;;18.92;60.45;101013.69;7361709;19;20006;-59
2022/09/22 01:31:24;;;;;;;0.00;0.00;;;;;;;18.89;61.68;101020.00;7253505;19;2004165;-60
2022/09/22 01:34:04;;;;;;;;;;;;;;;18.92;60.14;100998.69;7361717;19;20018;-57
2022/09/22 01:36:55;;;;;;;0.00;0.00;;;;;;;18.91;61.31;100991.69;7360978;19;19922;-59
2022/09/22 01:39:25;;;;;;;0.00;0.00;;;;;;;18.89;61.68;100987.38;7362053;19;20096;-59
2022/09/22 01:42:10;;;;;;;0.08;0.08;;;;;;;18.84;60.61;100974.41;7360904;19;20118;-60
2022/09/22 01:44:43;;;;;;;0.08;0.08;;;;;;;18.89;62.17;100992.69;7360365;19;20030;-60
2022/09/22 01:47:14;;;;;;;0.00;0.00;;;;;;;18.90;61.65;100983.81;7364852;19;20082;-59
2022/09/22 01:49:50;;;;;;;0.00;0.00;;;;;;;18.87;62.10;100984.84;7361544;19;20014;-60
2022/09/22 01:52:22;;;;;;;0.00;0.00;;;;;;;18.91;62.61;100986.38;7366455;19;20347;-60
2022/09/22 01:54:58;;;;;;;0.00;0.00;;;;;;;18.91;62.02;100981.09;7363484;19;20901;-60
2022/09/22 01:57:55;;;;;;;0.03;0.03;;;;;;;18.95;61.50;100975.63;7362669;19;20002;-59
2022/09/22 02:00:22;;;;;;;0.05;0.05;;;;;;;18.91;62.61;100978.44;7259629;19;2004359;-59
2022/09/22 02:02:59;;;;;;;0.08;0.08;;;;;;;18.91;63.03;100970.50;7362523;19;20014;-57
2022/09/22 02:05:44;;;;;;;0.00;0.00;;;;;;;18.97;61.58;100979.91;7359552;19;20073;-60
2022/09/22 02:08:16;;;;;;;0.10;0.10;;;;;;;18.98;61.95;100971.03;7358710;19;21507;-59
2022/09/22 02:10:44;;;;;;;0.00;0.00;;;;;;;18.98;62.69;100986.06;7354625;19;20046;-59
2022/09/22 02:13:10;;;;;;;0.05;0.05;;;;;;;18.97;63.00;100973.75;7358647;19;20109;-60
2022/09/22 02:18:43;;;;;;;0.00;0.00;;;;;;;18.98;65.35;100972.81;7361929;19;20034;-57
2022/09/22 02:21:10;;;;;;;0.00;0.00;;;;;;;18.94;65.81;100980.06;7358248;19;20073;-58
2022/09/22 02:23:35;;;;;;;0.00;0.00;;;;;;;18.89;65.91;100977.66;7361263;19;20570;-55
2022/09/22 02:26:03;;;;;;;0.08;0.08;;;;;;;18.83;66.98;100972.69;7360525;19;20019;-57
2022/09/22 02:28:31;;;;;;;0.00;0.00;;;;;;;18.66;67.22;100943.59;7358708;19;20003;-56
2022/09/22 02:31:00;;;;;;;0.00;0.00;;;;;;;18.67;67.73;100974.41;7360592;19;20550;-58
2022/09/22 02:33:27;;;;;;;0.00;0.00;;;;;;;18.57;68.64;100967.88;7358450;19;20010;-57
2022/09/22 02:36:08;;;;;;;0.00;0.00;;;;;;;18.50;66.61;100974.41;7357450;19;20019;-58
2022/09/22 02:38:55;;;;;;;0.00;0.00;;;;;;;18.40;66.52;100961.69;7357948;19;20020;-57
2022/09/22 02:41:48;;;;;;;0.10;0.10;;;;;;;18.31;66.79;100958.66;7360082;19;20014;-57
2022/09/22 02:44:20;;;;;;;0.00;0.00;;;;;;;18.22;68.91;100949.38;7257516;19;2004397;-58
2022/09/22 02:46:51;;;;;;;0.00;0.00;;;;;;;18.13;69.87;100944.56;7359939;19;20015;-56
2022/09/22 02:49:18;;;;;;;0.00;0.00;;;;;;;18.06;69.01;100949.28;7360133;19;20043;-57
2022/09/22 02:51:47;;;;;;;0.00;0.00;;;;;;;18.00;73.22;100943.47;7359693;19;20082;-56
2022/09/22 02:54:13;;;;;;;0.00;0.00;;;;;;;17.94;72.70;100941.09;7362037;19;20006;-58
2022/09/22 02:56:40;;;;;;;0.00;0.00;;;;;;;17.88;73.32;100944.91;7360792;19;20006;-56
2022/09/22 02:59:08;;;;;;;0.00;0.00;;;;;;;17.83;71.42;100942.50;7358726;19;20031;-56
2022/09/22 03:01:34;;;;;;;0.08;0.08;;;;;;;17.79;73.88;100942.72;7358563;19;20026;-59
2022/09/22 03:03:59;;;;;;;0.00;0.00;;;;;;;17.76;72.59;100940.25;7348146;19;20427;-58
2022/09/22 03:06:25;;;;;;;0.05;0.05;;;;;;;17.73;74.43;100935.94;7361183;19;20014;-58
2022/09/22 03:08:50;;;;;;;0.03;0.03;;;;;;;17.56;73.98;100909.47;7360326;19;20457;-58
2022/09/22 03:11:15;;;;;;;0.10;0.10;;;;;;;17.69;74.58;100934.38;7365684;19;20010;-58
2022/09/22 03:13:41;;;;;;;0.00;0.00;;;;;;;17.62;73.33;100925.03;7365803;19;20010;-59
2022/09/22 03:16:07;;;;;;;0.00;0.00;;;;;;;17.63;74.18;100924.09;7368766;19;20070;-59
2022/09/22 03:18:32;;;;;;;0.00;0.00;;;;;;;17.53;73.93;100917.53;7363092;19;20030;-55
2022/09/22 03:20:57;;;;;;;0.00;0.00;;;;;;;17.57;75.10;100913.81;7359573;19;20010;-58
2022/09/22 03:23:23;;;;;;;0.00;0.00;;;;;;;17.57;74.86;100919.97;7369226;19;20581;-58
2022/09/22 03:25:48;;;;;;;0.10;0.10;;;;;;;17.54;75.30;100917.47;7368001;19;20014;-58
2022/09/22 03:28:14;;;;;;;0.00;0.00;;;;;;;17.51;74.86;100911.47;7369617;19;20101;-58
2022/09/22 03:30:39;;;;;;;0.00;0.00;;;;;;;17.48;75.37;100914.25;7367605;19;20006;-58
2022/09/22 03:33:05;;;;;;;0.00;0.00;;;;;;;17.48;76.23;100915.13;7366974;19;21407;-58
2022/09/22 03:35:30;;;;;;;0.00;0.00;;;;;;;17.46;74.58;100916.13;7368185;19;20009;-58
2022/09/22 03:37:56;;;;;;;0.05;0.05;;;;;;;17.46;75.04;100903.78;7364858;19;20015;-59
2022/09/22 03:40:21;;;;;;;0.00;0.00;;;;;;;17.45;75.97;100903.88;7369160;19;20010;-59
2022/09/22 03:42:47;;;;;;;0.00;0.00;;;;;;;17.43;76.87;100895.16;7368101;19;20014;-58
2022/09/22 03:45:13;;;;;;;0.10;0.10;;;;;;;17.43;75.88;100900.44;7367849;19;20018;-58
2022/09/22 03:47:39;;;;;;;0.03;0.03;;;;;;;17.42;75.59;100896.09;7366194;19;20026;-58
2022/09/22 03:50:05;;;;;;;0.00;0.00;;;;;;;17.42;76.51;100885.53;7366354;19;20425;-58
2022/09/22 03:52:32;;;;;;;0.00;0.00;;;;;;;17.43;76.17;100897.78;7366576;19;20026;-56
2022/09/22 03:54:57;;;;;;;0.00;0.00;;;;;;;17.43;75.75;100892.50;7368615;19;20010;-59
2022/09/22 03:57:23;;;;;;;0.00;0.00;;;;;;;17.43;74.50;100889.88;7367753;19;20034;-58
2022/09/22 03:59:49;;;;;;;0.00;0.00;;;;;;;17.42;76.09;100882.88;7367441;19;20017;-58
2022/09/22 04:02:14;;;;;;;0.10;0.10;;;;;;;17.38;75.72;100880.38;7368228;19;20013;-58
2022/09/22 04:04:40;;;;;;;0.00;0.00;;;;;;;17.41;76.67;100886.47;7366567;19;20009;-60
2022/09/22 04:07:06;;;;;;;0.05;0.05;;;;;;;17.41;76.73;100887.31;7368578;19;20017;-59
2022/09/22 04:09:31;;;;;;;0.05;0.05;;;;;;;17.40;77.03;100887.41;7366651;19;20013;-59
2022/09/22 04:11:57;;;;;;;0.10;0.10;;;;;;;17.36;76.34;100873.47;7365843;19;20014;-59
2022/09/22 04:14:22;;;;;;;0.00;0.00;;;;;;;17.41;76.23;100886.47;7366102;19;20002;-59
2022/09/22 04:16:47;;;;;;;0.00;0.00;;;;;;;17.43;75.45;100879.31;7371881;19;20011;-56
2022/09/22 04:19:14;;;;;;;0.10;0.10;;;;;;;17.43;76.59;100879.31;7361307;19;20006;-59
2022/09/22 04:21:39;;;;;;;0.00;0.00;;;;;;;17.42;76.84;100875.81;7367339;19;20034;-59
2022/09/22 04:24:07;;;;;;;0.00;0.00;;;;;;;17.36;76.97;100866.41;7366028;19;20565;-58
2022/09/22 04:26:32;;;;;;;0.00;0.00;;;;;;;17.43;75.66;100868.75;7365705;19;20573;-59
2022/09/22 04:28:58;;;;;;;0.00;0.00;;;;;;;17.42;76.32;100873.19;7366751;19;20093;-59
2022/09/22 04:31:23;;;;;;;0.00;0.00;;;;;;;17.42;76.58;100867.03;7364929;19;20045;-57
2022/09/22 04:33:48;;;;;;;0.10;0.10;;;;;;;17.41;76.72;100865.34;7365818;19;20010;-59
2022/09/22 04:36:14;;;;;;;0.00;0.00;;;;;;;17.37;76.24;100854.91;7365002;19;20473;-57
2022/09/22 04:38:39;;;;;;;0.00;0.00;;;;;;;17.41;76.92;100850.34;7365718;19;20014;-60
2022/09/22 04:41:05;;;;;;;0.00;0.00;;;;;;;17.41;77.17;100866.19;7363927;19;20021;-59
2022/09/22 04:43:30;;;;;;;0.00;0.00;;;;;;;17.43;76.62;100858.19;7366340;19;20013;-60
2022/09/22 04:45:55;;;;;;;0.00;0.00;;;;;;;17.42;76.62;100854.69;7365352;19;21727;-60
2022/09/22 04:48:21;;;;;;;0.00;0.00;;;;;;;17.40;76.66;100847.78;7365672;19;20014;-59
2022/09/22 04:50:46;;;;;;;0.00;0.00;;;;;;;17.40;77.28;100859.22;7364113;19;21038;-57
2022/09/22 04:53:12;;;;;;;0.00;0.00;;;;;;;17.39;75.93;100846.94;7365867;19;20011;-59
2022/09/22 04:55:37;;;;;;;0.00;0.00;;;;;;;17.36;76.94;100842.66;7365808;19;20010;-58
2022/09/22 04:58:03;;;;;;;0.00;0.00;;;;;;;17.28;77.42;100834.25;7363825;19;20018;-56
2022/09/22 05:00:29;;;;;;;0.00;0.00;;;;;;;17.38;76.72;100846.06;7365720;19;20078;-58
2022/09/22 05:02:55;;;;;;;0.00;0.00;;;;;;;17.40;75.83;100850.44;7364110;19;20456;-58
2022/09/22 05:05:23;;;;;;;0.00;0.00;;;;;;;17.38;76.44;100861.91;7365911;19;20029;-58
2022/09/22 05:07:53;;;;;;;0.00;0.00;;;;;;;17.39;77.00;100852.22;7366525;19;20006;-59
2022/09/22 05:10:20;;;;;;;0.00;0.00;;;;;;;17.37;77.68;100839.06;7365678;19;20808;-58
2022/09/22 05:12:46;;;;;;;0.00;0.00;;;;;;;17.36;77.34;100847.06;7364028;19;20035;-57
2022/09/22 05:15:13;;;;;;;0.00;0.00;;;;;;;17.36;77.97;100840.00;7365375;19;20010;-58
2022/09/22 05:17:49;;;;;;;0.00;0.00;;;;;;;17.37;76.02;100838.22;7366273;19;20123;-58
2022/09/22 05:20:15;;;;;;;0.00;0.00;;;;;;;17.28;77.26;100834.25;7367264;19;20007;-60
2022/09/22 05:22:41;;;;;;;0.10;0.10;;;;;;;17.36;77.47;100850.56;7365829;19;22560;-61
2022/09/22 05:25:12;;;;;;;0.00;0.00;;;;;;;17.34;77.62;100833.97;7365065;19;20460;-60
2022/09/22 05:27:49;;;;;;;0.00;0.00;;;;;;;17.36;76.13;100845.28;7364075;19;20003;-58
2022/09/22 05:30:16;;;;;;;0.00;0.00;;;;;;;17.32;76.81;100835.81;7364530;19;20010;-59
2022/09/22 05:32:43;;;;;;;0.08;0.08;;;;;;;17.32;77.82;100835.81;7363572;19;20057;-57
2022/09/22 05:35:12;;;;;;;0.00;0.00;;;;;;;17.32;76.84;100850.78;7364958;19;20010;-57
2022/09/22 05:37:38;;;;;;;0.00;0.00;;;;;;;17.31;77.87;100849.09;7365401;19;20010;-58
2022/09/22 05:40:05;;;;;;;0.00;0.00;;;;;;;17.24;77.88;100837.13;7363828;19;20003;-58
2022/09/22 05:42:31;;;;;;;0.05;0.05;;;;;;;17.31;78.00;100852.56;7365731;19;20006;-58
2022/09/22 05:44:57;;;;;;;0.00;0.00;;;;;;;17.30;77.55;100842.94;7361258;19;21841;-59
2022/09/22 05:47:22;;;;;;;0.00;0.00;;;;;;;17.29;76.76;100845.69;7366106;19;20027;-59
2022/09/22 05:49:48;;;;;;;0.00;0.00;;;;;;;17.32;77.78;100849.00;7362168;19;23236;-58
2022/09/22 05:52:13;;;;;;;0.03;0.03;;;;;;;17.32;76.39;100850.78;7365402;19;20017;-59
2022/09/22 05:54:38;;;;;;;0.00;0.00;;;;;;;17.31;77.57;100847.28;7365301;19;20015;-57
2022/09/22 05:57:04;;;;;;;0.03;0.03;;;;;;;17.31;77.44;100852.56;7364916;19;20393;-59
2022/09/22 05:59:29;;;;;;;0.00;0.00;;;;;;;17.32;77.28;100859.56;7354388;19;20018;-59
2022/09/22 06:01:54;;;;;;;0.00;0.00;;;;;;;17.31;77.59;100847.28;7360537;19;20565;-58
2022/09/22 06:04:20;;;;;;;0.10;0.10;;;;;;;17.28;77.56;100850.06;7361907;19;20027;-58
2022/09/22 06:06:46;;;;;;;0.00;0.00;;;;;;;17.30;77.23;100853.50;7358349;19;20028;-58
2022/09/22 06:09:11;;;;;;;0.00;0.00;;;;;;;17.30;77.80;100856.16;7358596;19;20018;-58
2022/09/22 06:11:37;;;;;;;0.00;0.00;;;;;;;17.31;78.02;100860.50;7358852;19;20018;-58
2022/09/22 06:14:02;;;;;;;0.00;0.00;;;;;;;17.31;77.90;100860.50;7356008;19;20078;-58
2022/09/22 06:16:29;;;;;;;0.00;0.00;;;;;;;17.31;78.03;100865.78;7358717;19;20054;-58
2022/09/22 06:18:54;;;;;;;0.00;0.00;;;;;;;17.31;77.51;100859.66;7358499;19;20358;-59
2022/09/22 06:21:20;;;;;;;0.10;0.10;;;;;;;17.31;77.66;100852.56;7356607;19;20018;-59
2022/09/22 06:23:45;;;;;;;0.05;0.05;;;;;;;17.32;77.72;100856.91;7360518;19;20027;-59
2022/09/22 06:26:10;;;;;;;0.00;0.00;;;;;;;17.30;78.14;100852.66;7357081;19;20010;-58
2022/09/22 06:28:36;;;;;;;0.00;0.00;;;;;;;17.32;78.29;100859.56;7360132;19;20045;-59
2022/09/22 06:31:01;;;;;;;0.00;0.00;;;;;;;17.32;78.01;100864.84;7359511;19;20467;-58
2022/09/22 06:33:27;;;;;;;0.08;0.08;;;;;;;17.23;78.17;100854.72;7361807;19;20413;-59
2022/09/22 06:35:53;;;;;;;0.00;0.00;;;;;;;17.32;78.23;100870.13;7363776;19;20113;-58
2022/09/22 06:38:18;;;;;;;0.00;0.00;;;;;;;17.35;77.48;100866.50;7349315;19;20014;-59
2022/09/22 06:40:44;;;;;;;0.00;0.00;;;;;;;17.34;76.60;100876.19;7356831;19;20476;-58
2022/09/22 06:43:19;;;;;;;0.10;0.10;;;;;;;17.35;77.94;100866.50;7358012;19;20022;-60
2022/09/22 06:45:45;;;;;;;0.00;0.00;;;;;;;17.34;77.91;100873.56;7356078;19;20035;-59
2022/09/22 06:48:11;;;;;;;0.10;0.10;;;;;;;17.34;77.92;100881.47;7357343;19;20109;-59
2022/09/22 06:50:39;;;;;;;0.00;0.00;;;;;;;17.31;78.07;100884.25;7348957;19;20003;-60
2022/09/22 06:53:07;;;;;;;0.00;0.00;;;;;;;17.35;78.21;100891.09;7351536;19;20029;-59
2022/09/22 06:55:33;;;;;;;0.00;0.00;;;;;;;17.35;78.30;100885.81;7353785;19;20027;-59
2022/09/22 06:58:00;;;;;;;0.10;0.10;;;;;;;17.36;78.23;100879.59;7352663;19;20043;-58
2022/09/22 07:00:31;;;;;;;0.00;0.00;;;;;;;17.38;77.64;100883.00;7356040;19;20083;-59
2022/09/22 07:03:12;;;;;;;0.00;0.00;;;;;;;17.42;77.85;100877.59;7360470;19;20047;-58
2022/09/22 07:05:37;;;;;;;0.00;0.00;;;;;;;17.37;78.20;100872.53;7359247;19;20010;-59
2022/09/22 07:08:03;;;;;;;0.10;0.10;;;;;;;17.38;79.00;100880.38;7362265;19;20045;-59
2022/09/22 07:10:30;;;;;;;0.08;0.08;;;;;;;17.37;79.02;100876.03;7357388;19;20015;-60
2022/09/22 07:12:59;;;;;;;0.10;0.10;;;;;;;17.38;78.88;100869.81;7362301;19;20048;-57
2022/09/22 07:15:24;;;;;;;0.00;0.00;;;;;;;17.40;78.79;100868.91;7362635;19;20022;-58
2022/09/22 07:17:52;;;;;;;0.10;0.10;;;;;;;17.43;77.58;100880.16;7360498;19;20015;-58
2022/09/22 07:20:22;;;;;;;0.00;0.00;;;;;;;17.42;78.76;100874.97;7357682;19;20031;-59
2022/09/22 07:22:47;;;;;;;0.10;0.10;;;;;;;17.42;78.89;100880.25;7362193;19;20017;-58
2022/09/22 07:25:13;;;;;;;0.00;0.00;;;;;;;17.43;79.31;100884.59;7362444;19;20011;-59
2022/09/22 07:27:38;;;;;;;0.10;0.10;;;;;;;17.43;79.19;100879.31;7363570;19;20515;-59
2022/09/22 07:30:04;;;;;;;0.00;0.00;;;;;;;17.46;78.85;100879.16;7356880;19;20014;-59
2022/09/22 07:32:33;;;;;;;0.10;0.10;;;;;;;17.50;78.96;100870.19;7359295;19;20043;-59
2022/09/22 07:35:00;;;;;;;0.00;0.00;;;;;;;17.48;78.69;100879.94;7359917;19;20007;-59
2022/09/22 07:37:28;;;;;;;0.10;0.10;;;;;;;17.49;79.08;100871.13;7362344;19;20022;-57
2022/09/22 07:39:54;;;;;;;0.00;0.00;;;;;;;17.49;79.50;100874.59;7358735;19;20015;-60
2022/09/22 07:42:20;;;;;;;0.10;0.10;;;;;;;17.48;79.32;100859.66;7355508;19;20047;-60
2022/09/22 07:50:16;;;;;;;0.10;0.10;;;;;;;17.52;79.53;100881.50;7360586;19;20013;-60
2022/09/22 07:52:41;;;;;;;0.00;0.00;;;;;;;17.50;79.41;100875.47;7361264;19;20011;-59
2022/09/22 07:55:07;;;;;;;0.10;0.10;;;;;;;17.51;79.81;100864.81;7362926;19;20015;-60
2022/09/22 07:57:32;;;;;;;0.10;0.10;;;;;;;17.55;79.45;100862.88;7368069;19;20052;-59
2022/09/22 07:59:58;;;;;;;0.00;0.00;;;;;;;17.49;79.50;100852.63;7367769;19;20007;-59
2022/09/22 08:02:25;;;;;;;0.10;0.10;;;;;;;17.55;79.33;100854.97;7369086;19;20031;-58
2022/09/22 08:04:51;;;;;;;;;;;;;;;17.60;76.40;100874.06;7369239;19;20036;-58
2022/09/22 08:07:16;;;;;;;0.00;0.00;;;;;;;17.53;77.94;100885.84;7367993;19;19931;-59
2022/09/22 08:09:41;;;;;;;0.00;0.00;;;;;;;17.54;78.55;100879.66;7366944;19;20482;-59
2022/09/22 08:12:08;;;;;;;0.00;0.00;;;;;;;17.53;79.04;100875.28;7368207;19;20018;-59
2022/09/22 08:14:34;;;;;;;0.10;0.10;;;;;;;17.52;78.23;100890.28;7365387;19;20010;-59
2022/09/22 08:16:59;;;;;;;0.00;0.00;;;;;;;17.51;79.06;100898.28;7368044;19;20021;-59
2022/09/22 08:19:25;;;;;;;0.00;0.00;;;;;;;17.45;78.65;100883.59;7366504;19;20423;-59
2022/09/22 08:21:52;;;;;;;0.00;0.00;;;;;;;17.50;78.22;100886.03;7367869;19;20015;-58
2022/09/22 08:24:21;;;;;;;;;;;;;;;17.52;75.69;100889.44;7366104;19;20384;-57
2022/09/22 08:26:49;;;;;;;0.00;0.00;;;;;;;17.46;77.72;100893.22;7368492;19;20447;-59
2022/09/22 08:29:14;;;;;;;0.05;0.05;;;;;;;17.43;78.23;100900.44;7366336;19;20038;-59
2022/09/22 08:31:41;;;;;;;0.05;0.05;;;;;;;17.35;78.10;100893.75;7367621;19;20010;-59
2022/09/22 08:34:07;;;;;;;0.00;0.00;;;;;;;17.34;78.42;100913.16;7367169;19;20015;-58
2022/09/22 08:36:33;;;;;;;0.00;0.00;;;;;;;17.31;78.68;100913.28;7368143;19;20050;-59
2022/09/22 08:39:00;;;;;;;0.03;0.03;;;;;;;17.18;78.61;100895.44;7366056;19;20014;-59
2022/09/22 08:41:32;;;;;;;0.00;0.00;;;;;;;17.27;79.03;100911.72;7367679;19;22586;-59
2022/09/22 08:44:11;;;;;;;0.10;0.10;;;;;;;17.29;78.37;100915.16;7365437;19;20038;-59
2022/09/22 08:46:44;;;;;;;0.00;0.00;;;;;;;17.24;78.57;100906.59;7368150;19;20011;-59
2022/09/22 08:52:34;;;;;;;0.00;0.00;;;;;;;17.25;77.89;100899.53;7264792;19;2004572;-59
2022/09/22 08:55:01;;;;;;;0.10;0.10;;;;;;;17.06;79.59;100881.06;7262587;19;2004504;-59
2022/09/22 08:58:02;;;;;;;0.00;0.00;;;;;;;17.23;79.04;100890.81;7368578;19;20023;-59
2022/09/22 09:00:35;;;;;;;0.00;0.00;;;;;;;17.13;79.71;100869.28;7262944;19;2004374;-58
2022/09/22 09:03:37;;;;;;;0.10;0.10;;;;;;;17.25;79.21;100881.91;7366332;19;20006;-58
2022/09/22 09:06:15;;;;;;;0.10;0.10;;;;;;;17.23;80.03;100889.03;7264930;19;2004476;-58
2022/09/22 09:08:40;;;;;;;;;;;;;;;17.28;77.82;100881.75;7362153;19;20014;-60
2022/09/22 09:11:18;;;;;;;0.00;0.00;;;;;;;17.27;79.46;100895.88;7363283;19;20040;-59
2022/09/22 09:14:03;;;;;;;0.00;0.00;;;;;;;17.31;78.60;100897.44;7362275;19;20011;-58
2022/09/22 09:16:28;;;;;;;0.00;0.00;;;;;;;17.31;79.56;100909.78;7363365;19;20077;-59
2022/09/22 09:19:01;;;;;;;0.10;0.10;;;;;;;17.35;79.48;100914.00;7366069;19;22949;-58
2022/09/22 09:21:31;;;;;;;0.03;0.03;;;;;;;17.35;80.05;100922.78;7367155;19;20065;-60
2022/09/22 09:24:03;;;;;;;0.00;0.00;;;;;;;17.35;79.98;100920.13;7362990;19;20435;-59
2022/09/22 09:26:31;;;;;;;0.00;0.00;;;;;;;17.29;80.13;100898.47;7362055;19;20008;-59
2022/09/22 09:29:00;;;;;;;0.03;0.03;;;;;;;17.41;80.38;100923.41;7362488;19;20016;-59
2022/09/22 09:31:26;;;;;;;0.00;0.00;;;;;;;17.43;80.34;100924.19;7365462;19;20014;-59
2022/09/22 09:34:01;;;;;;;0.00;0.00;;;;;;;17.46;80.54;100921.41;7364490;19;20010;-59
2022/09/22 09:36:32;;;;;;;0.00;0.00;;;;;;;17.51;80.04;100924.69;7363986;19;20025;-59
2022/09/22 09:38:59;;;;;;;0.10;0.10;;;;;;;17.52;80.24;100931.69;7364043;19;20103;-57
2022/09/22 09:41:31;;;;;;;0.00;0.00;;;;;;;17.58;80.16;100931.38;7363811;19;20099;-58
2022/09/22 09:43:58;;;;;;;0.00;0.00;;;;;;;17.59;80.23;100928.69;7365834;19;20043;-59
2022/09/22 09:46:44;;;;;;;0.05;0.05;;;;;;;17.64;79.86;100933.75;7366015;19;20006;-59
2022/09/22 09:49:13;;;;;;;0.00;0.00;;;;;;;17.64;79.79;100931.09;7364300;19;20014;-60
2022/09/22 09:51:43;;;;;;;0.00;0.00;;;;;;;17.62;79.97;100920.59;7363206;19;20021;-60
2022/09/22 09:54:13;;;;;;;0.10;0.10;;;;;;;17.69;79.73;100937.03;7364083;19;20569;-60
2022/09/22 09:57:07;;;;;;;0.00;0.00;;;;;;;17.72;78.86;100939.50;7365394;19;21831;-60
2022/09/22 10:02:24;;;;;;;0.00;0.00;;;;;;;17.73;80.04;100941.22;7363736;19;20023;-58
2022/09/22 10:04:52;;;;;;;0.00;0.00;;;;;;;17.72;79.87;100939.50;7365259;19;20612;-60
2022/09/22 10:07:24;;;;;;;0.00;0.00;;;;;;;17.74;79.50;100948.25;7365336;19;20006;-59
2022/09/22 10:09:51;;;;;;;0.00;0.00;;;;;;;17.74;79.83;100952.66;7363498;19;20118;-59
2022/09/22 10:12:28;;;;;;;0.00;0.00;;;;;;;17.77;79.23;100947.22;7359940;19;20014;-60
2022/09/22 10:14:59;;;;;;;0.00;0.00;;;;;;;17.71;79.39;100937.78;7360296;19;20556;-58
2022/09/22 10:17:39;;;;;;;0.00;0.00;;;;;;;17.78;78.92;100944.50;7361714;19;20085;-60
2022/09/22 10:20:14;;;;;;;0.00;0.00;;;;;;;17.77;79.14;100953.38;7362085;19;20831;-59
2022/09/22 10:22:41;;;;;;;0.00;0.00;;;;;;;17.71;80.04;100958.06;7362739;19;20048;-60
2022/09/22 10:25:20;;;;;;;0.10;0.10;;;;;;;17.76;79.41;100954.31;7363817;19;20030;-58
2022/09/22 10:28:19;;;;;;;0.00;0.00;;;;;;;17.78;78.64;100970.06;7365004;19;20011;-59
2022/09/22 10:30:59;;;;;;;0.08;0.08;;;;;;;17.78;78.61;100965.63;7258002;19;2004232;-60
2022/09/22 10:33:25;;;;;;;0.10;0.10;;;;;;;17.74;79.01;100956.19;7362012;19;20026;-60
2022/09/22 10:35:55;;;;;;;0.00;0.00;;;;;;;17.76;79.31;100964.88;7364120;19;25822;-60
2022/09/22 10:38:23;;;;;;;0.00;0.00;;;;;;;17.72;79.38;100970.34;7363265;19;20010;-61
2022/09/22 10:40:55;;;;;;;0.00;0.00;;;;;;;17.74;79.47;100974.66;7362000;19;20010;-60
2022/09/22 10:43:34;;;;;;;0.10;0.10;;;;;;;17.72;79.13;100965.91;7363016;19;21181;-60
2022/09/22 10:46:31;;;;;;;0.00;0.00;;;;;;;17.75;79.34;100971.09;7363976;19;20010;-60
2022/09/22 10:48:59;;;;;;;;;;;;;;;17.78;77.92;100984.13;7262048;19;2004573;-60
2022/09/22 10:51:43;;;;;;;0.00;0.00;;;;;;;17.78;78.73;100989.41;7363524;19;19918;-60
2022/09/22 10:54:21;;;;;;;0.00;0.00;;;;;;;17.76;79.59;100983.34;7362513;19;20030;-60
2022/09/22 10:56:52;;;;;;;0.10;0.10;;;;;;;17.78;79.79;100989.41;7363252;19;20010;-60
2022/09/22 10:59:53;;;;;;;0.00;0.00;;;;;;;17.80;79.39;100982.28;7357724;19;20010;-60
2022/09/22 11:02:44;;;;;;;0.00;0.00;;;;;;;17.82;79.55;100983.06;7255770;19;2004249;-57
2022/09/22 11:14:35;;;;;;;0.10;0.10;;;;;;;17.83;79.25;100984.75;7256674;19;2004485;-61
2022/09/22 11:17:22;;;;;;;0.10;0.10;;;;;;;17.83;78.92;100997.97;7258992;19;2004212;-60
2022/09/22 11:20:06;;;;;;;;;;;;;;;17.84;78.23;100986.50;7363001;19;20043;-60
2022/09/22 11:22:49;;;;;;;0.08;0.08;;;;;;;17.83;78.99;100981.25;7360285;19;20318;-60
2022/09/22 11:25:43;;;;;;;0.00;0.00;;;;;;;17.82;79.11;100988.34;7361088;19;20122;-60
2022/09/22 11:28:21;;;;;;;0.10;0.10;;;;;;;17.81;79.97;100984.00;7261588;19;2004376;-61
2022/09/22 11:30:50;;;;;;;0.00;0.00;;;;;;;17.82;80.38;100982.19;7360170;19;20042;-60
2022/09/22 11:33:28;;;;;;;0.00;0.00;;;;;;;17.86;79.81;100976.69;7368263;19;20010;-60
2022/09/22 11:36:04;;;;;;;0.05;0.05;;;;;;;17.89;79.95;100973.91;7366726;19;20022;-60
2022/09/22 11:39:12;;;;;;;0.00;0.00;;;;;;;17.96;79.97;100981.53;7365748;19;20803;-61
2022/09/22 11:41:47;;;;;;;0.00;0.00;;;;;;;18.01;80.28;100983.03;7264838;19;2004320;-61
2022/09/22 11:44:48;;;;;;;0.00;0.00;;;;;;;18.07;79.81;100987.16;7366252;19;20248;-61
2022/09/22 11:47:22;;;;;;;0.00;0.00;;;;;;;18.10;79.79;100989.66;7263679;19;2005846;-60
2022/09/22 11:50:00;;;;;;;0.00;0.00;;;;;;;18.12;80.26;100990.41;7366356;19;22093;-61
2022/09/22 11:52:53;;;;;;;0.00;0.00;;;;;;;18.21;79.36;100973.25;7366613;19;20035;-61
2022/09/22 11:55:38;;;;;;;0.00;0.00;;;;;;;18.26;79.35;100976.53;7264378;19;2004554;-61
2022/09/22 11:58:18;;;;;;;0.00;0.00;;;;;;;18.29;79.58;100987.78;7365618;19;20015;-61
2022/09/22 12:00:49;;;;;;;0.00;0.00;;;;;;;18.32;80.34;100992.94;7365052;19;20014;-61
2022/09/22 12:03:22;;;;;;;0.00;0.00;;;;;;;18.37;79.69;100996.19;7364115;19;20035;-61
2022/09/22 12:05:50;;;;;;;0.10;0.10;;;;;;;18.38;80.05;100997.91;7367133;19;20019;-60
2022/09/22 12:08:25;;;;;;;0.00;0.00;;;;;;;18.45;79.61;100992.28;7362870;19;20014;-61